createdAt,value
2022-09-27T00:00:31.559Z,10.73
2022-09-27T00:01:31.662Z,10.64
2022-09-27T00:02:31.635Z,10.66
2022-09-27T00:03:31.536Z,10.66
2022-09-27T00:04:31.530Z,10.68
2022-09-27T00:05:31.500Z,10.63
2022-09-27T00:06:31.497Z,10.64
2022-09-27T00:07:31.482Z,10.66
2022-09-27T00:08:31.464Z,10.64
2022-09-27T00:09:31.479Z,10.60
2022-09-27T00:10:31.463Z,10.67
2022-09-27T00:11:31.435Z,10.63
2022-09-27T00:12:31.419Z,10.59
2022-09-27T00:13:31.432Z,10.59
2022-09-27T00:14:31.401Z,10.64
2022-09-27T00:15:31.433Z,10.61
2022-09-27T00:16:31.375Z,10.64
2022-09-27T00:17:31.366Z,10.59
2022-09-27T00:18:31.398Z,10.61
2022-09-27T00:19:31.344Z,10.67
2022-09-27T00:20:31.330Z,10.61
2022-09-27T00:21:31.320Z,10.64
2022-09-27T00:22:31.316Z,10.60
2022-09-27T00:23:31.318Z,10.66
2022-09-27T00:24:31.286Z,10.59
2022-09-27T00:25:31.295Z,10.60
2022-09-27T00:26:31.265Z,10.60
2022-09-27T00:27:31.254Z,10.61
2022-09-27T00:28:31.242Z,10.64
2022-09-27T00:29:31.233Z,10.64
2022-09-27T00:30:31.296Z,10.63
2022-09-27T00:31:31.297Z,10.60
2022-09-27T00:32:31.196Z,10.61
2022-09-27T00:33:31.187Z,10.60
2022-09-27T00:34:31.194Z,10.61
2022-09-27T00:35:31.165Z,10.68
2022-09-27T00:36:31.170Z,10.71
2022-09-27T00:37:31.143Z,10.59
2022-09-27T00:38:31.134Z,10.64
2022-09-27T00:39:31.312Z,10.71
2022-09-27T00:40:31.183Z,10.68
2022-09-27T00:41:31.096Z,10.68
2022-09-27T00:42:31.085Z,10.67
2022-09-27T00:43:31.122Z,10.59
2022-09-27T00:44:31.063Z,10.66
2022-09-27T00:45:31.073Z,10.66
2022-09-27T00:46:31.109Z,10.64
2022-09-27T00:47:31.341Z,10.63
2022-09-27T00:48:31.025Z,10.59
2022-09-27T00:49:31.011Z,10.63
2022-09-27T00:50:31.033Z,10.71
2022-09-27T00:51:30.983Z,10.68
2022-09-27T00:52:30.971Z,10.73
2022-09-27T00:53:30.963Z,10.70
2022-09-27T00:54:30.952Z,10.78
2022-09-27T00:55:30.962Z,10.67
2022-09-27T00:56:30.929Z,10.73
2022-09-27T00:57:30.936Z,10.68
2022-09-27T00:58:30.921Z,10.70
2022-09-27T00:59:30.901Z,10.70
2022-09-27T01:00:30.911Z,10.67
2022-09-27T01:01:30.959Z,10.68
2022-09-27T01:02:30.913Z,10.71
2022-09-27T01:03:30.848Z,10.71
2022-09-27T01:04:30.841Z,10.71
2022-09-27T01:05:30.855Z,10.73
2022-09-27T01:06:30.878Z,10.64
2022-09-27T01:07:30.808Z,10.73
2022-09-27T01:08:30.794Z,10.71
2022-09-27T01:09:30.806Z,10.71
2022-09-27T01:10:30.771Z,10.66
2022-09-27T01:11:30.785Z,10.78
2022-09-27T01:12:30.747Z,10.70
2022-09-27T01:13:30.758Z,10.71
2022-09-27T01:14:30.820Z,10.79
2022-09-27T01:15:30.787Z,10.78
2022-09-27T01:16:30.704Z,10.79
2022-09-27T01:17:30.695Z,10.73
2022-09-27T01:18:30.707Z,10.71
2022-09-27T01:19:30.678Z,10.73
2022-09-27T01:20:30.681Z,10.81
2022-09-27T01:21:30.669Z,10.86
2022-09-27T01:22:30.688Z,10.76
2022-09-27T01:23:30.649Z,10.71
2022-09-27T01:24:30.634Z,10.79
2022-09-27T01:25:30.603Z,10.79
2022-09-27T01:26:30.627Z,10.74
2022-09-27T01:27:30.580Z,10.82
2022-09-27T01:28:30.569Z,10.79
2022-09-27T01:29:30.561Z,10.73
2022-09-27T01:30:30.610Z,10.74
2022-09-27T01:31:30.667Z,10.74
2022-09-27T01:32:30.562Z,10.73
2022-09-27T01:33:30.520Z,10.73
2022-09-27T01:34:30.558Z,10.78
2022-09-27T01:35:30.491Z,10.78
2022-09-27T01:36:30.622Z,10.82
2022-09-27T01:37:30.485Z,10.76
2022-09-27T01:38:30.475Z,10.78
2022-09-27T01:39:30.445Z,10.81
2022-09-27T01:40:30.516Z,10.71
2022-09-27T01:41:30.425Z,10.70
2022-09-27T01:42:30.432Z,10.81
2022-09-27T01:43:30.402Z,10.86
2022-09-27T01:44:30.394Z,10.82
2022-09-27T01:45:30.385Z,10.76
2022-09-27T01:46:30.471Z,10.71
2022-09-27T01:47:30.361Z,10.79
2022-09-27T01:48:30.347Z,10.81
2022-09-27T01:49:30.335Z,10.84
2022-09-27T01:50:30.326Z,10.84
2022-09-27T01:51:30.339Z,10.89
2022-09-27T01:52:30.325Z,10.84
2022-09-27T01:53:30.291Z,10.81
2022-09-27T01:54:30.329Z,10.81
2022-09-27T01:55:30.268Z,10.85
2022-09-27T01:56:30.258Z,10.84
2022-09-27T01:57:30.284Z,10.85
2022-09-27T01:58:30.255Z,10.82
2022-09-27T01:59:30.226Z,10.84
2022-09-27T02:00:30.218Z,10.81
2022-09-27T02:01:30.343Z,10.85
2022-09-27T02:02:30.239Z,10.85
2022-09-27T02:03:30.202Z,10.81
2022-09-27T02:04:30.171Z,10.86
2022-09-27T02:05:30.159Z,10.82
2022-09-27T02:06:30.145Z,10.82
2022-09-27T02:07:30.152Z,10.86
2022-09-27T02:08:30.124Z,10.78
2022-09-27T02:09:30.136Z,10.85
2022-09-27T02:10:30.123Z,10.85
2022-09-27T02:11:30.086Z,10.81
2022-09-27T02:12:30.109Z,10.82
2022-09-27T02:13:30.068Z,10.81
2022-09-27T02:14:30.080Z,10.81
2022-09-27T02:15:30.171Z,10.79
2022-09-27T02:16:30.033Z,10.82
2022-09-27T02:17:30.030Z,10.73
2022-09-27T02:18:30.013Z,10.78
2022-09-27T02:19:30.019Z,10.81
2022-09-27T02:20:29.996Z,10.76
2022-09-27T02:21:29.983Z,10.74
2022-09-27T02:22:29.964Z,10.71
2022-09-27T02:23:29.974Z,10.78
2022-09-27T02:24:29.946Z,10.67
2022-09-27T02:25:29.932Z,10.67
2022-09-27T02:26:29.972Z,10.70
2022-09-27T02:27:29.907Z,10.70
2022-09-27T02:28:29.900Z,10.66
2022-09-27T02:29:29.886Z,10.67
2022-09-27T02:30:30.069Z,10.73
2022-09-27T02:31:29.971Z,10.81
2022-09-27T02:32:29.854Z,10.78
2022-09-27T02:33:29.861Z,10.76
2022-09-27T02:34:29.830Z,10.76
2022-09-27T02:35:29.819Z,10.76
2022-09-27T02:36:29.834Z,10.70
2022-09-27T02:37:29.797Z,10.66
2022-09-27T02:38:29.789Z,10.71
2022-09-27T02:39:29.774Z,10.71
2022-09-27T02:40:29.845Z,10.81
2022-09-27T02:41:29.777Z,10.73
2022-09-27T02:42:29.760Z,10.81
2022-09-27T02:43:29.728Z,10.73
2022-09-27T02:44:29.720Z,10.81
2022-09-27T02:45:29.707Z,10.74
2022-09-27T02:46:29.801Z,10.70
2022-09-27T02:47:29.687Z,10.76
2022-09-27T02:48:29.673Z,10.70
2022-09-27T02:49:29.688Z,10.79
2022-09-27T02:50:29.659Z,10.71
2022-09-27T02:51:29.663Z,10.70
2022-09-27T02:52:29.630Z,10.67
2022-09-27T02:53:29.618Z,10.73
2022-09-27T02:54:29.627Z,10.82
2022-09-27T02:55:29.599Z,10.68
2022-09-27T02:56:29.605Z,10.63
2022-09-27T02:57:29.570Z,10.70
2022-09-27T02:58:29.583Z,10.74
2022-09-27T02:59:29.580Z,10.70
2022-09-27T03:00:29.543Z,10.76
2022-09-27T03:01:29.604Z,10.78
2022-09-27T03:02:29.648Z,10.81
2022-09-27T03:03:29.506Z,10.67
2022-09-27T03:04:29.520Z,10.76
2022-09-27T03:05:29.506Z,10.70
2022-09-27T03:06:29.473Z,10.71
2022-09-27T03:07:29.464Z,10.73
2022-09-27T03:08:29.452Z,10.74
2022-09-27T03:09:29.462Z,10.70
2022-09-27T03:10:29.455Z,10.78
2022-09-27T03:11:29.451Z,10.66
2022-09-27T03:12:29.425Z,10.66
2022-09-27T03:13:29.409Z,10.64
2022-09-27T03:14:29.399Z,10.63
2022-09-27T03:15:29.374Z,10.63
2022-09-27T03:16:29.457Z,10.56
2022-09-27T03:17:29.347Z,10.59
2022-09-27T03:18:29.367Z,10.61
2022-09-27T03:19:29.324Z,10.63
2022-09-27T03:20:29.354Z,10.60
2022-09-27T03:21:29.336Z,10.63
2022-09-27T03:22:29.292Z,10.68
2022-09-27T03:23:29.302Z,10.56
2022-09-27T03:24:29.272Z,10.63
2022-09-27T03:25:29.259Z,10.61
2022-09-27T03:26:29.276Z,10.56
2022-09-27T03:27:29.236Z,10.68
2022-09-27T03:28:29.231Z,10.61
2022-09-27T03:29:29.215Z,10.63
2022-09-27T03:30:29.221Z,10.66
2022-09-27T03:31:29.265Z,10.64
2022-09-27T03:32:29.202Z,10.55
2022-09-27T03:33:29.170Z,10.60
2022-09-27T03:34:29.158Z,10.60
2022-09-27T03:35:29.172Z,10.66
2022-09-27T03:36:29.135Z,10.64
2022-09-27T03:37:29.130Z,10.66
2022-09-27T03:38:29.116Z,10.59
2022-09-27T03:39:29.114Z,10.53
2022-09-27T03:40:29.155Z,10.52
2022-09-27T03:41:29.105Z,10.67
2022-09-27T03:42:29.091Z,10.56
2022-09-27T03:43:29.077Z,10.61
2022-09-27T03:44:29.054Z,10.53
2022-09-27T03:45:29.033Z,10.51
2022-09-27T03:46:29.172Z,10.64
2022-09-27T03:47:29.016Z,10.52
2022-09-27T03:48:29.034Z,10.56
2022-09-27T03:49:28.989Z,10.59
2022-09-27T03:50:28.981Z,10.55
2022-09-27T03:51:28.973Z,10.59
2022-09-27T03:52:28.958Z,10.67
2022-09-27T03:53:28.971Z,10.60
2022-09-27T03:54:28.935Z,10.59
2022-09-27T03:55:28.924Z,10.71
2022-09-27T03:56:28.912Z,10.59
2022-09-27T03:57:28.903Z,10.66
2022-09-27T03:58:28.914Z,10.60
2022-09-27T03:59:28.881Z,10.56
2022-09-27T04:00:28.869Z,10.66
2022-09-27T04:01:28.999Z,10.59
2022-09-27T04:02:28.935Z,10.67
2022-09-27T04:03:28.855Z,10.60
2022-09-27T04:04:28.825Z,10.63
2022-09-27T04:05:28.850Z,10.67
2022-09-27T04:06:28.825Z,10.59
2022-09-27T04:07:28.790Z,10.60
2022-09-27T04:08:28.778Z,10.59
2022-09-27T04:09:28.767Z,10.64
2022-09-27T04:10:28.856Z,10.67
2022-09-27T04:11:28.745Z,10.68
2022-09-27T04:12:28.731Z,10.56
2022-09-27T04:13:28.723Z,10.63
2022-09-27T04:14:28.760Z,10.66
2022-09-27T04:15:28.721Z,10.56
2022-09-27T04:16:28.714Z,10.64
2022-09-27T04:17:28.677Z,10.73
2022-09-27T04:18:28.683Z,10.71
2022-09-27T04:19:28.654Z,10.60
2022-09-27T04:20:28.664Z,10.61
2022-09-27T04:21:28.634Z,10.66
2022-09-27T04:22:28.625Z,10.68
2022-09-27T04:23:30.219Z,10.64
2022-09-27T04:24:28.597Z,10.79
2022-09-27T04:25:28.611Z,10.70
2022-09-27T04:26:28.575Z,10.71
2022-09-27T04:27:28.565Z,10.68
2022-09-27T04:28:28.552Z,10.76
2022-09-27T04:29:28.566Z,10.61
2022-09-27T04:30:28.640Z,10.67
2022-09-27T04:31:28.579Z,10.68
2022-09-27T04:32:28.517Z,10.66
2022-09-27T04:33:28.501Z,10.68
2022-09-27T04:34:28.532Z,10.60
2022-09-27T04:35:28.484Z,10.64
2022-09-27T04:36:28.489Z,10.60
2022-09-27T04:37:28.458Z,10.64
2022-09-27T04:38:28.441Z,10.64
2022-09-27T04:39:28.433Z,10.64
2022-09-27T04:40:28.505Z,10.67
2022-09-27T04:41:28.442Z,10.63
2022-09-27T04:42:28.853Z,10.56
2022-09-27T04:43:28.406Z,10.60
2022-09-27T04:44:28.371Z,10.67
2022-09-27T04:45:28.362Z,10.64
2022-09-27T04:46:28.359Z,10.60
2022-09-27T04:47:28.347Z,10.53
2022-09-27T04:48:28.349Z,10.38
2022-09-27T04:49:28.320Z,10.53
2022-09-27T04:50:29.154Z,10.47
2022-09-27T04:51:28.302Z,10.47
2022-09-27T04:52:28.306Z,10.47
2022-09-27T04:53:28.277Z,10.48
2022-09-27T04:54:28.288Z,10.47
2022-09-27T04:55:28.256Z,10.32
2022-09-27T04:56:28.240Z,10.45
2022-09-27T04:57:28.233Z,10.36
2022-09-27T04:58:28.225Z,10.38
2022-09-27T04:59:28.233Z,10.33
2022-09-27T05:00:28.206Z,10.42
2022-09-27T05:01:28.251Z,10.40
2022-09-27T05:02:28.211Z,10.38
2022-09-27T05:03:28.290Z,10.36
2022-09-27T05:04:28.154Z,10.41
2022-09-27T05:05:28.141Z,10.36
2022-09-27T05:06:28.338Z,10.38
2022-09-27T05:07:28.119Z,10.34
2022-09-27T05:08:28.109Z,10.40
2022-09-27T05:09:28.100Z,10.33
2022-09-27T05:10:28.106Z,10.33
2022-09-27T05:11:28.095Z,10.30
2022-09-27T05:12:28.063Z,10.27
2022-09-27T05:13:28.056Z,10.27
2022-09-27T05:14:28.042Z,10.32
2022-09-27T05:15:28.051Z,10.18
2022-09-27T05:16:30.793Z,10.17
2022-09-27T05:17:29.009Z,10.26
2022-09-27T05:18:28.000Z,10.27
2022-09-27T05:19:27.987Z,10.27
2022-09-27T05:20:27.993Z,10.20
2022-09-27T05:21:27.963Z,10.18
2022-09-27T05:22:27.972Z,10.20
2022-09-27T05:23:27.944Z,10.23
2022-09-27T05:24:27.952Z,10.14
2022-09-27T05:25:27.922Z,10.26
2022-09-27T05:26:27.906Z,10.18
2022-09-27T05:27:28.099Z,10.12
2022-09-27T05:28:27.886Z,10.18
2022-09-27T05:29:27.874Z,10.18
2022-09-27T05:30:27.976Z,10.18
2022-09-27T05:31:28.014Z,10.11
2022-09-27T05:32:27.840Z,10.20
2022-09-27T05:33:27.831Z,10.17
2022-09-27T05:34:27.819Z,10.17
2022-09-27T05:35:27.808Z,10.12
2022-09-27T05:36:27.817Z,10.15
2022-09-27T05:37:27.789Z,10.23
2022-09-27T05:38:27.810Z,10.09
2022-09-27T05:39:27.763Z,10.17
2022-09-27T05:40:42.055Z,10.22
2022-09-27T05:41:28.851Z,10.15
2022-09-27T05:42:27.727Z,10.09
2022-09-27T05:43:27.745Z,10.15
2022-09-27T05:44:27.726Z,10.15
2022-09-27T05:45:27.697Z,10.22
2022-09-27T05:46:27.797Z,10.20
2022-09-27T05:47:27.677Z,10.18
2022-09-27T05:48:27.684Z,10.25
2022-09-27T05:49:27.669Z,10.25
2022-09-27T05:50:27.640Z,10.22
2022-09-27T05:51:27.629Z,10.26
2022-09-27T05:52:27.618Z,10.27
2022-09-27T05:53:27.607Z,10.26
2022-09-27T05:54:27.636Z,10.30
2022-09-27T05:55:27.584Z,10.38
2022-09-27T05:56:27.572Z,10.42
2022-09-27T05:57:27.585Z,10.45
2022-09-27T05:58:27.570Z,10.41
2022-09-27T05:59:27.540Z,10.48
2022-09-27T06:00:27.528Z,10.47
2022-09-27T06:01:27.576Z,10.51
2022-09-27T06:02:27.556Z,10.47
2022-09-27T06:03:27.518Z,10.51
2022-09-27T06:04:27.485Z,10.42
2022-09-27T06:05:27.499Z,10.51
2022-09-27T06:06:27.461Z,10.45
2022-09-27T06:07:27.471Z,10.42
2022-09-27T06:08:27.439Z,10.44
2022-09-27T06:09:27.432Z,10.45
2022-09-27T06:10:27.534Z,10.55
2022-09-27T06:11:27.570Z,10.48
2022-09-27T06:12:27.395Z,10.47
2022-09-27T06:13:27.383Z,10.48
2022-09-27T06:14:27.372Z,10.51
2022-09-27T06:15:27.383Z,10.47
2022-09-27T06:16:27.426Z,10.51
2022-09-27T06:17:27.340Z,10.48
2022-09-27T06:18:27.348Z,10.42
2022-09-27T06:19:27.316Z,10.34
2022-09-27T06:20:27.357Z,10.45
2022-09-27T06:21:27.296Z,10.40
2022-09-27T06:22:27.306Z,10.34
2022-09-27T06:23:27.306Z,10.34
2022-09-27T06:24:27.262Z,10.32
2022-09-27T06:25:27.255Z,10.36
2022-09-27T06:26:27.276Z,10.33
2022-09-27T06:27:27.230Z,10.29
2022-09-27T06:28:27.216Z,10.23
2022-09-27T06:29:27.209Z,10.23
2022-09-27T06:30:27.309Z,10.29
2022-09-27T06:31:27.202Z,10.23
2022-09-27T06:32:27.188Z,10.27
2022-09-27T06:33:27.183Z,10.26
2022-09-27T06:34:27.149Z,10.26
2022-09-27T06:35:27.138Z,10.33
2022-09-27T06:36:27.145Z,10.22
2022-09-27T06:37:27.114Z,10.30
2022-09-27T06:38:27.102Z,10.30
2022-09-27T06:39:27.111Z,10.27
2022-09-27T06:40:27.411Z,10.25
2022-09-27T06:41:27.097Z,10.20
2022-09-27T06:42:27.111Z,10.29
2022-09-27T06:43:27.047Z,10.18
2022-09-27T06:44:27.035Z,10.14
2022-09-27T06:45:27.033Z,10.22
2022-09-27T06:46:27.088Z,10.27
2022-09-27T06:47:27.024Z,10.30
2022-09-27T06:48:26.989Z,10.18
2022-09-27T06:49:26.981Z,10.15
2022-09-27T06:50:27.036Z,10.27
2022-09-27T06:51:26.984Z,10.27
2022-09-27T06:52:26.945Z,10.15
2022-09-27T06:53:26.937Z,10.18
2022-09-27T06:54:26.923Z,10.17
2022-09-27T06:55:26.913Z,10.26
2022-09-27T06:56:27.003Z,10.26
2022-09-27T06:57:26.895Z,10.29
2022-09-27T06:58:26.894Z,10.27
2022-09-27T06:59:26.872Z,10.23
2022-09-27T07:00:27.114Z,10.18
2022-09-27T07:01:26.916Z,10.27
2022-09-27T07:02:26.857Z,10.26
2022-09-27T07:03:32.433Z,10.29
2022-09-27T07:04:27.810Z,10.29
2022-09-27T07:05:26.800Z,10.25
2022-09-27T07:06:26.811Z,10.29
2022-09-27T07:07:26.779Z,10.26
2022-09-27T07:08:26.765Z,10.26
2022-09-27T07:09:26.759Z,10.26
2022-09-27T07:10:26.832Z,10.27
2022-09-27T07:11:26.764Z,10.26
2022-09-27T07:12:26.720Z,10.29
2022-09-27T07:13:26.716Z,10.33
2022-09-27T07:14:26.716Z,10.26
2022-09-27T07:15:26.699Z,10.38
2022-09-27T07:16:26.773Z,10.38
2022-09-27T07:17:26.693Z,10.26
2022-09-27T07:18:26.661Z,10.36
2022-09-27T07:19:26.669Z,10.45
2022-09-27T07:20:26.654Z,10.51
2022-09-27T07:21:26.631Z,10.55
2022-09-27T07:22:26.631Z,10.52
2022-09-27T07:23:26.617Z,10.48
2022-09-27T07:24:26.592Z,10.52
2022-09-27T07:25:26.577Z,10.48
2022-09-27T07:26:26.563Z,10.44
2022-09-27T07:27:26.577Z,10.41
2022-09-27T07:28:26.558Z,10.40
2022-09-27T07:29:26.530Z,10.38
2022-09-27T07:30:26.670Z,10.45
2022-09-27T07:31:26.512Z,10.41
2022-09-27T07:32:26.518Z,10.44
2022-09-27T07:33:26.511Z,10.48
2022-09-27T07:34:26.477Z,10.47
2022-09-27T07:35:26.487Z,10.52
2022-09-27T07:36:26.457Z,10.44
2022-09-27T07:37:26.453Z,10.52
2022-09-27T07:38:26.450Z,10.52
2022-09-27T07:39:26.420Z,10.51
2022-09-27T07:40:26.643Z,10.53
2022-09-27T07:41:26.397Z,10.61
2022-09-27T07:42:26.411Z,10.55
2022-09-27T07:43:26.375Z,10.60
2022-09-27T07:44:26.366Z,10.61
2022-09-27T07:45:26.354Z,10.70
2022-09-27T07:46:26.361Z,10.74
2022-09-27T07:47:26.330Z,10.79
2022-09-27T07:48:26.343Z,10.79
2022-09-27T07:49:26.307Z,10.81
2022-09-27T07:50:26.450Z,10.89
2022-09-27T07:51:26.287Z,10.91
2022-09-27T07:52:26.273Z,10.94
2022-09-27T07:53:26.286Z,10.94
2022-09-27T07:54:26.252Z,10.97
2022-09-27T07:55:26.263Z,10.88
2022-09-27T07:56:26.228Z,10.84
2022-09-27T07:57:26.221Z,10.74
2022-09-27T07:58:26.211Z,10.70
2022-09-27T07:59:26.256Z,10.73
2022-09-27T08:00:26.199Z,10.68
2022-09-27T08:01:26.231Z,10.76
2022-09-27T08:02:26.217Z,10.81
2022-09-27T08:03:26.151Z,10.78
2022-09-27T08:04:26.139Z,10.84
2022-09-27T08:05:26.159Z,10.92
2022-09-27T08:06:26.124Z,10.91
2022-09-27T08:07:26.111Z,10.94
2022-09-27T08:08:26.113Z,10.97
2022-09-27T08:09:26.091Z,11.02
2022-09-27T08:10:26.074Z,10.99
2022-09-27T08:11:26.096Z,11.02
2022-09-27T08:12:26.052Z,10.94
2022-09-27T08:13:26.079Z,11.00
2022-09-27T08:14:26.044Z,11.07
2022-09-27T08:15:26.024Z,11.07
2022-09-27T08:16:26.084Z,11.19
2022-09-27T08:17:25.995Z,11.24
2022-09-27T08:18:26.027Z,11.28
2022-09-27T08:19:25.982Z,11.24
2022-09-27T08:20:25.962Z,11.25
2022-09-27T08:21:25.957Z,11.32
2022-09-27T08:22:25.977Z,11.32
2022-09-27T08:23:27.033Z,11.35
2022-09-27T08:24:25.935Z,11.42
2022-09-27T08:25:25.905Z,11.43
2022-09-27T08:26:25.899Z,11.58
2022-09-27T08:27:25.919Z,11.51
2022-09-27T08:28:26.014Z,11.49
2022-09-27T08:29:25.878Z,11.51
2022-09-27T08:30:25.854Z,11.52
2022-09-27T08:31:26.001Z,11.58
2022-09-27T08:32:25.846Z,11.51
2022-09-27T08:33:29.856Z,11.47
2022-09-27T08:34:27.109Z,11.51
2022-09-27T08:35:25.834Z,11.47
2022-09-27T08:36:25.814Z,11.60
2022-09-27T08:37:25.783Z,11.57
2022-09-27T08:38:25.763Z,11.60
2022-09-27T08:39:25.767Z,11.54
2022-09-27T08:40:25.813Z,11.49
2022-09-27T08:41:25.823Z,11.54
2022-09-27T08:42:25.727Z,11.52
2022-09-27T08:43:25.749Z,11.69
2022-09-27T08:44:25.702Z,11.62
2022-09-27T08:45:25.742Z,11.73
2022-09-27T08:46:25.683Z,11.67
2022-09-27T08:47:28.385Z,11.76
2022-09-27T08:48:25.686Z,11.57
2022-09-27T08:49:25.646Z,11.55
2022-09-27T08:50:25.657Z,11.60
2022-09-27T08:51:25.628Z,11.55
2022-09-27T08:52:25.623Z,11.70
2022-09-27T08:53:25.608Z,11.70
2022-09-27T08:54:25.622Z,11.83
2022-09-27T08:55:25.590Z,11.85
2022-09-27T08:56:25.585Z,12.02
2022-09-27T08:57:25.556Z,12.02
2022-09-27T08:58:25.585Z,12.14
2022-09-27T08:59:25.538Z,12.09
2022-09-27T09:00:25.516Z,12.05
2022-09-27T09:01:28.913Z,11.90
2022-09-27T09:02:25.598Z,11.99
2022-09-27T09:03:25.488Z,12.01
2022-09-27T09:04:25.496Z,11.95
2022-09-27T09:05:25.462Z,11.88
2022-09-27T09:06:25.493Z,11.95
2022-09-27T09:07:25.438Z,11.98
2022-09-27T09:08:25.437Z,11.95
2022-09-27T09:09:25.437Z,11.83
2022-09-27T09:10:25.476Z,11.88
2022-09-27T09:11:25.392Z,11.86
2022-09-27T09:12:25.385Z,11.83
2022-09-27T09:13:25.851Z,11.86
2022-09-27T09:14:25.381Z,11.83
2022-09-27T09:15:25.354Z,11.80
2022-09-27T09:16:25.378Z,11.83
2022-09-27T09:17:25.349Z,11.80
2022-09-27T09:18:25.320Z,11.72
2022-09-27T09:19:25.308Z,11.70
2022-09-27T09:20:25.320Z,11.61
2022-09-27T09:21:25.298Z,11.61
2022-09-27T09:22:25.292Z,11.54
2022-09-27T09:23:25.261Z,11.60
2022-09-27T09:24:25.333Z,11.54
2022-09-27T09:25:25.279Z,11.65
2022-09-27T09:26:25.227Z,11.78
2022-09-27T09:27:25.214Z,11.70
2022-09-27T09:28:25.231Z,11.65
2022-09-27T09:29:25.197Z,11.67
2022-09-27T09:30:25.209Z,11.73
2022-09-27T09:31:25.338Z,11.79
2022-09-27T09:32:25.165Z,11.86
2022-09-27T09:33:25.153Z,11.88
2022-09-27T09:34:25.166Z,11.90
2022-09-27T09:35:25.130Z,11.88
2022-09-27T09:36:25.117Z,11.96
2022-09-27T09:37:25.107Z,11.91
2022-09-27T09:38:25.116Z,11.83
2022-09-27T09:39:25.117Z,11.85
2022-09-27T09:40:25.264Z,11.86
2022-09-27T09:41:25.060Z,11.80
2022-09-27T09:42:25.053Z,11.85
2022-09-27T09:43:25.037Z,11.73
2022-09-27T09:44:25.056Z,11.67
2022-09-27T09:45:25.107Z,11.72
2022-09-27T09:46:25.013Z,11.88
2022-09-27T09:47:24.993Z,11.88
2022-09-27T09:48:24.984Z,12.01
2022-09-27T09:49:24.972Z,11.98
2022-09-27T09:50:24.997Z,11.94
2022-09-27T09:51:24.948Z,11.90
2022-09-27T09:52:24.982Z,11.65
2022-09-27T09:53:24.925Z,11.70
2022-09-27T09:54:24.940Z,11.70
2022-09-27T09:55:24.905Z,11.83
2022-09-27T09:56:24.918Z,11.85
2022-09-27T09:57:24.897Z,11.88
2022-09-27T09:58:24.880Z,11.98
2022-09-27T09:59:24.867Z,12.01
2022-09-27T10:00:24.880Z,12.04
2022-09-27T10:01:24.921Z,12.10
2022-09-27T10:02:24.946Z,12.07
2022-09-27T10:03:24.833Z,12.20
2022-09-27T10:04:24.811Z,12.21
2022-09-27T10:05:24.796Z,12.45
2022-09-27T10:06:24.805Z,12.67
2022-09-27T10:07:24.775Z,12.78
2022-09-27T10:08:24.765Z,12.90
2022-09-27T10:09:24.749Z,12.83
2022-09-27T10:10:24.759Z,12.90
2022-09-27T10:11:24.749Z,13.03
2022-09-27T10:12:24.745Z,13.17
2022-09-27T10:13:24.713Z,13.14
2022-09-27T10:14:24.699Z,13.14
2022-09-27T10:15:24.683Z,13.19
2022-09-27T10:16:24.711Z,13.29
2022-09-27T10:17:24.682Z,13.39
2022-09-27T10:18:24.649Z,13.57
2022-09-27T10:19:24.639Z,13.59
2022-09-27T10:20:24.632Z,13.96
2022-09-27T10:21:24.644Z,14.18
2022-09-27T10:22:24.610Z,14.29
2022-09-27T10:23:24.593Z,14.32
2022-09-27T10:24:25.050Z,14.29
2022-09-27T10:25:24.577Z,14.46
2022-09-27T10:26:24.583Z,14.58
2022-09-27T10:27:24.568Z,14.86
2022-09-27T10:28:24.540Z,14.62
2022-09-27T10:29:24.525Z,14.57
2022-09-27T10:30:24.545Z,14.61
2022-09-27T10:31:24.559Z,14.78
2022-09-27T10:32:24.496Z,15.01
2022-09-27T10:33:24.492Z,15.07
2022-09-27T10:34:24.472Z,15.16
2022-09-27T10:35:24.461Z,14.92
2022-09-27T10:36:24.537Z,14.98
2022-09-27T10:37:24.460Z,14.75
2022-09-27T10:38:24.431Z,14.68
2022-09-27T10:39:24.415Z,14.94
2022-09-27T10:40:24.460Z,15.17
2022-09-27T10:41:24.395Z,15.17
2022-09-27T10:42:24.585Z,15.31
2022-09-27T10:43:28.847Z,15.14
2022-09-27T10:44:25.570Z,14.61
2022-09-27T10:45:24.427Z,14.83
2022-09-27T10:46:24.338Z,14.75
2022-09-27T10:47:24.326Z,14.81
2022-09-27T10:48:24.316Z,14.77
2022-09-27T10:49:24.356Z,14.68
2022-09-27T10:50:45.738Z,14.51
2022-09-27T10:51:25.305Z,14.39
2022-09-27T10:52:24.273Z,14.15
2022-09-27T10:53:24.258Z,14.12
2022-09-27T10:54:24.249Z,13.89
2022-09-27T10:55:24.239Z,13.85
2022-09-27T10:56:24.252Z,13.75
2022-09-27T10:57:24.235Z,13.73
2022-09-27T10:58:24.230Z,13.57
2022-09-27T10:59:24.195Z,13.63
2022-09-27T11:00:24.183Z,13.48
2022-09-27T11:01:24.199Z,13.49
2022-09-27T11:02:24.184Z,13.45
2022-09-27T11:03:24.172Z,13.30
2022-09-27T11:04:24.189Z,13.26
2022-09-27T11:05:24.127Z,13.26
2022-09-27T11:06:24.114Z,13.29
2022-09-27T11:07:24.129Z,13.32
2022-09-27T11:08:24.107Z,13.38
2022-09-27T11:09:24.079Z,13.46
2022-09-27T11:10:24.082Z,13.44
2022-09-27T11:11:24.058Z,13.59
2022-09-27T11:12:24.073Z,13.52
2022-09-27T11:13:24.034Z,13.55
2022-09-27T11:14:24.046Z,13.64
2022-09-27T11:15:24.014Z,13.46
2022-09-27T11:16:24.039Z,13.39
2022-09-27T11:17:23.990Z,13.33
2022-09-27T11:18:24.005Z,13.29
2022-09-27T11:19:24.024Z,13.19
2022-09-27T11:20:23.959Z,13.17
2022-09-27T11:21:23.967Z,13.22
2022-09-27T11:22:23.938Z,13.15
2022-09-27T11:23:23.923Z,13.15
2022-09-27T11:24:23.917Z,13.23
2022-09-27T11:25:27.265Z,13.19
2022-09-27T11:26:24.893Z,13.25
2022-09-27T11:27:23.902Z,13.45
2022-09-27T11:28:23.868Z,13.60
2022-09-27T11:29:23.858Z,13.71
2022-09-27T11:30:23.866Z,13.66
2022-09-27T11:31:23.884Z,13.59
2022-09-27T11:32:23.878Z,13.45
2022-09-27T11:33:23.929Z,13.44
2022-09-27T11:34:23.979Z,13.33
2022-09-27T11:35:23.790Z,13.12
2022-09-27T11:36:23.782Z,13.10
2022-09-27T11:37:23.841Z,13.10
2022-09-27T11:38:47.994Z,12.92
2022-09-27T11:39:24.745Z,12.83
2022-09-27T11:40:23.866Z,12.77
2022-09-27T11:41:23.749Z,12.79
2022-09-27T11:42:23.767Z,12.77
2022-09-27T11:43:23.767Z,12.87
2022-09-27T11:44:23.776Z,13.15
2022-09-27T11:45:45.338Z,13.30
2022-09-27T11:46:31.101Z,13.17
2022-09-27T11:47:25.080Z,13.25
2022-09-27T11:48:23.782Z,13.36
2022-09-27T11:49:23.767Z,13.55
2022-09-27T11:50:23.717Z,13.59
2022-09-27T11:51:23.874Z,13.66
2022-09-27T11:52:24.398Z,13.60
2022-09-27T11:53:23.655Z,13.85
2022-09-27T11:54:23.726Z,13.99
2022-09-27T11:55:23.718Z,14.10
2022-09-27T11:56:23.825Z,14.18
2022-09-27T11:57:23.598Z,14.28
2022-09-27T11:58:23.538Z,14.29
2022-09-27T11:59:24.909Z,14.28
2022-09-27T12:00:23.739Z,14.27
2022-09-27T12:01:23.499Z,14.28
2022-09-27T12:02:23.589Z,14.33
2022-09-27T12:03:23.536Z,14.27
2022-09-27T12:04:23.469Z,14.32
2022-09-27T12:05:23.520Z,14.25
2022-09-27T12:06:23.469Z,14.35
2022-09-27T12:07:23.481Z,14.22
2022-09-27T12:08:23.423Z,14.10
2022-09-27T12:09:23.410Z,14.17
2022-09-27T12:10:23.421Z,14.09
2022-09-27T12:11:23.390Z,14.02
2022-09-27T12:12:23.402Z,14.02
2022-09-27T12:13:23.369Z,14.03
2022-09-27T12:14:26.792Z,13.99
2022-09-27T12:15:23.347Z,14.14
2022-09-27T12:16:23.385Z,14.15
2022-09-27T12:17:23.344Z,14.21
2022-09-27T12:18:23.349Z,14.28
2022-09-27T12:19:23.309Z,14.33
2022-09-27T12:20:23.311Z,14.32
2022-09-27T12:21:23.275Z,14.22
2022-09-27T12:22:46.681Z,14.15
2022-09-27T12:23:24.255Z,13.95
2022-09-27T12:24:23.246Z,13.92
2022-09-27T12:25:23.256Z,13.88
2022-09-27T12:26:23.221Z,13.78
2022-09-27T12:27:23.231Z,13.77
2022-09-27T12:28:27.987Z,13.88
2022-09-27T12:29:24.184Z,14.21
2022-09-27T12:30:23.183Z,14.27
2022-09-27T12:31:30.878Z,14.54
2022-09-27T12:32:24.209Z,14.69
2022-09-27T12:33:23.147Z,14.89
2022-09-27T12:34:23.156Z,14.83
2022-09-27T12:35:23.147Z,14.86
2022-09-27T12:36:23.112Z,14.70
2022-09-27T12:37:23.120Z,14.64
2022-09-27T12:38:23.086Z,14.55
2022-09-27T12:39:23.080Z,14.47
2022-09-27T12:40:23.120Z,14.22
2022-09-27T12:41:23.060Z,14.24
2022-09-27T12:42:23.045Z,14.27
2022-09-27T12:43:23.034Z,14.27
2022-09-27T12:44:23.048Z,14.28
2022-09-27T12:45:23.051Z,14.21
2022-09-27T12:46:23.035Z,14.20
2022-09-27T12:47:23.116Z,14.17
2022-09-27T12:48:22.981Z,14.20
2022-09-27T12:49:22.975Z,14.27
2022-09-27T12:50:22.998Z,14.33
2022-09-27T12:51:22.946Z,14.37
2022-09-27T12:52:22.932Z,14.37